sensor_id;sensor_type;location;lat;lon;timestamp;temperature;humidity
22098;DHT22;11215;51.938;8.464;2022-11-15T00:00:27;12.10;65.20
22098;DHT22;11215;51.938;8.464;2022-11-15T00:02:53;12.20;65.20
22098;DHT22;11215;51.938;8.464;2022-11-15T00:05:19;12.20;65.20
22098;DHT22;11215;51.938;8.464;2022-11-15T00:07:44;12.20;65.10
22098;DHT22;11215;51.938;8.464;2022-11-15T00:10:10;12.20;65.10
22098;DHT22;11215;51.938;8.464;2022-11-15T00:12:36;12.20;65.00
22098;DHT22;11215;51.938;8.464;2022-11-15T00:15:02;12.30;65.10
22098;DHT22;11215;51.938;8.464;2022-11-15T00:17:27;12.20;64.90
22098;DHT22;11215;51.938;8.464;2022-11-15T00:19:53;12.30;64.90
22098;DHT22;11215;51.938;8.464;2022-11-15T00:22:19;12.30;65.00
22098;DHT22;11215;51.938;8.464;2022-11-15T00:24:44;12.30;65.00
22098;DHT22;11215;51.938;8.464;2022-11-15T00:27:10;12.30;65.00
22098;DHT22;11215;51.938;8.464;2022-11-15T00:29:35;12.30;65.00
22098;DHT22;11215;51.938;8.464;2022-11-15T00:32:04;12.40;65.90
22098;DHT22;11215;51.938;8.464;2022-11-15T00:34:30;12.40;65.10
22098;DHT22;11215;51.938;8.464;2022-11-15T00:36:55;12.40;65.10
22098;DHT22;11215;51.938;8.464;2022-11-15T00:39:21;12.40;65.10
22098;DHT22;11215;51.938;8.464;2022-11-15T00:41:47;12.40;65.10
22098;DHT22;11215;51.938;8.464;2022-11-15T00:44:12;12.40;65.10
22098;DHT22;11215;51.938;8.464;2022-11-15T00:46:38;12.40;65.20
22098;DHT22;11215;51.938;8.464;2022-11-15T00:49:04;12.50;65.30
22098;DHT22;11215;51.938;8.464;2022-11-15T00:51:29;12.50;65.40
22098;DHT22;11215;51.938;8.464;2022-11-15T00:53:55;12.50;65.40
22098;DHT22;11215;51.938;8.464;2022-11-15T00:56:20;12.50;65.40
22098;DHT22;11215;51.938;8.464;2022-11-15T00:58:46;12.50;65.50
22098;DHT22;11215;51.938;8.464;2022-11-15T01:01:14;12.60;65.70
22098;DHT22;11215;51.938;8.464;2022-11-15T01:03:41;12.50;65.80
22098;DHT22;11215;51.938;8.464;2022-11-15T01:06:07;12.60;66.00
22098;DHT22;11215;51.938;8.464;2022-11-15T01:08:33;12.60;66.00
22098;DHT22;11215;51.938;8.464;2022-11-15T01:11:17;12.60;66.00
22098;DHT22;11215;51.938;8.464;2022-11-15T01:13:43;12.60;66.50
22098;DHT22;11215;51.938;8.464;2022-11-15T01:16:14;12.60;66.10
22098;DHT22;11215;51.938;8.464;2022-11-15T01:18:41;12.70;66.40
22098;DHT22;11215;51.938;8.464;2022-11-15T01:21:09;12.70;66.30
22098;DHT22;11215;51.938;8.464;2022-11-15T01:23:35;12.80;66.50
22098;DHT22;11215;51.938;8.464;2022-11-15T01:26:02;12.80;66.50
22098;DHT22;11215;51.938;8.464;2022-11-15T01:28:36;12.80;66.50
22098;DHT22;11215;51.938;8.464;2022-11-15T01:31:05;12.80;66.90
22098;DHT22;11215;51.938;8.464;2022-11-15T01:33:33;12.90;66.70
22098;DHT22;11215;51.938;8.464;2022-11-15T01:36:03;12.90;66.70
22098;DHT22;11215;51.938;8.464;2022-11-15T01:38:29;12.90;66.80
22098;DHT22;11215;51.938;8.464;2022-11-15T01:40:55;12.90;66.70
22098;DHT22;11215;51.938;8.464;2022-11-15T01:48:47;13.00;67.50
22098;DHT22;11215;51.938;8.464;2022-11-15T01:51:14;13.00;66.80
22098;DHT22;11215;51.938;8.464;2022-11-15T01:53:45;13.00;66.90
22098;DHT22;11215;51.938;8.464;2022-11-15T01:56:16;13.10;67.00
22098;DHT22;11215;51.938;8.464;2022-11-15T01:58:46;13.10;67.00
22098;DHT22;11215;51.938;8.464;2022-11-15T02:01:15;13.10;66.90
22098;DHT22;11215;51.938;8.464;2022-11-15T02:03:59;13.00;66.80
22098;DHT22;11215;51.938;8.464;2022-11-15T02:06:28;13.10;67.30
22098;DHT22;11215;51.938;8.464;2022-11-15T02:08:54;13.10;67.10
22098;DHT22;11215;51.938;8.464;2022-11-15T02:11:21;13.10;67.30
22098;DHT22;11215;51.938;8.464;2022-11-15T02:13:50;13.10;67.40
22098;DHT22;11215;51.938;8.464;2022-11-15T02:27:33;13.10;68.30
22098;DHT22;11215;51.938;8.464;2022-11-15T02:30:27;13.20;67.70
22098;DHT22;11215;51.938;8.464;2022-11-15T02:32:58;13.10;68.00
22098;DHT22;11215;51.938;8.464;2022-11-15T02:36:02;13.20;67.90
22098;DHT22;11215;51.938;8.464;2022-11-15T02:41:11;13.20;68.20
22098;DHT22;11215;51.938;8.464;2022-11-15T02:43:48;13.20;68.90
22098;DHT22;11215;51.938;8.464;2022-11-15T02:49:41;13.30;68.70
22098;DHT22;11215;51.938;8.464;2022-11-15T02:52:14;13.30;68.50
22098;DHT22;11215;51.938;8.464;2022-11-15T02:54:39;13.30;68.70
22098;DHT22;11215;51.938;8.464;2022-11-15T02:57:15;13.30;68.50
22098;DHT22;11215;51.938;8.464;2022-11-15T03:00:19;13.40;69.30
22098;DHT22;11215;51.938;8.464;2022-11-15T03:11:31;13.50;69.30
22098;DHT22;11215;51.938;8.464;2022-11-15T03:14:21;13.50;68.80
22098;DHT22;11215;51.938;8.464;2022-11-15T03:19:47;13.50;69.30
22098;DHT22;11215;51.938;8.464;2022-11-15T03:22:24;13.60;69.60
22098;DHT22;11215;51.938;8.464;2022-11-15T03:24:54;13.60;69.60
22098;DHT22;11215;51.938;8.464;2022-11-15T03:27:27;13.60;69.00
22098;DHT22;11215;51.938;8.464;2022-11-15T03:30:00;13.60;69.10
22098;DHT22;11215;51.938;8.464;2022-11-15T03:32:35;13.60;69.10
22098;DHT22;11215;51.938;8.464;2022-11-15T03:35:06;13.70;69.20
22098;DHT22;11215;51.938;8.464;2022-11-15T03:38:15;13.60;69.10
22098;DHT22;11215;51.938;8.464;2022-11-15T03:41:02;13.70;70.00
22098;DHT22;11215;51.938;8.464;2022-11-15T03:46:25;13.70;69.10
22098;DHT22;11215;51.938;8.464;2022-11-15T03:49:31;13.70;69.70
22098;DHT22;11215;51.938;8.464;2022-11-15T03:51:52;13.70;69.40
22098;DHT22;11215;51.938;8.464;2022-11-15T03:54:21;13.70;68.90
22098;DHT22;11215;51.938;8.464;2022-11-15T03:56:50;13.70;68.70
22098;DHT22;11215;51.938;8.464;2022-11-15T03:59:15;13.70;69.10
22098;DHT22;11215;51.938;8.464;2022-11-15T04:01:43;13.70;69.00
22098;DHT22;11215;51.938;8.464;2022-11-15T04:04:12;13.80;69.10
22098;DHT22;11215;51.938;8.464;2022-11-15T04:06:37;13.80;69.10
22098;DHT22;11215;51.938;8.464;2022-11-15T04:09:06;13.80;69.20
22098;DHT22;11215;51.938;8.464;2022-11-15T04:11:37;13.80;69.40
22098;DHT22;11215;51.938;8.464;2022-11-15T04:14:08;13.80;69.20
22098;DHT22;11215;51.938;8.464;2022-11-15T04:16:33;13.80;69.00
22098;DHT22;11215;51.938;8.464;2022-11-15T04:19:02;13.80;69.20
22098;DHT22;11215;51.938;8.464;2022-11-15T04:21:46;13.80;69.40
22098;DHT22;11215;51.938;8.464;2022-11-15T04:24:30;13.80;69.00
22098;DHT22;11215;51.938;8.464;2022-11-15T04:26:59;13.80;69.00
22098;DHT22;11215;51.938;8.464;2022-11-15T04:29:25;13.80;69.20
22098;DHT22;11215;51.938;8.464;2022-11-15T04:32:04;13.80;69.30
22098;DHT22;11215;51.938;8.464;2022-11-15T04:34:38;13.80;69.40
22098;DHT22;11215;51.938;8.464;2022-11-15T04:37:04;13.80;69.10
22098;DHT22;11215;51.938;8.464;2022-11-15T04:39:44;13.80;69.10
22098;DHT22;11215;51.938;8.464;2022-11-15T04:42:15;13.80;69.20
22098;DHT22;11215;51.938;8.464;2022-11-15T04:44:41;13.80;69.50
22098;DHT22;11215;51.938;8.464;2022-11-15T04:47:12;13.80;69.00
22098;DHT22;11215;51.938;8.464;2022-11-15T04:49:38;13.80;69.20
22098;DHT22;11215;51.938;8.464;2022-11-15T04:52:07;13.80;68.80
22098;DHT22;11215;51.938;8.464;2022-11-15T04:54:33;13.80;69.50
22098;DHT22;11215;51.938;8.464;2022-11-15T04:56:58;13.80;69.30
22098;DHT22;11215;51.938;8.464;2022-11-15T04:59:24;13.80;69.40
22098;DHT22;11215;51.938;8.464;2022-11-15T05:01:49;13.80;69.40
22098;DHT22;11215;51.938;8.464;2022-11-15T05:04:15;13.80;69.40
22098;DHT22;11215;51.938;8.464;2022-11-15T05:06:48;13.80;69.60
22098;DHT22;11215;51.938;8.464;2022-11-15T05:09:13;13.80;69.60
22098;DHT22;11215;51.938;8.464;2022-11-15T05:11:40;13.80;69.40
22098;DHT22;11215;51.938;8.464;2022-11-15T05:14:05;13.80;69.60
22098;DHT22;11215;51.938;8.464;2022-11-15T05:16:31;13.80;69.40
22098;DHT22;11215;51.938;8.464;2022-11-15T05:18:56;13.80;69.40
22098;DHT22;11215;51.938;8.464;2022-11-15T05:21:22;13.80;70.20
22098;DHT22;11215;51.938;8.464;2022-11-15T05:23:48;13.90;69.50
22098;DHT22;11215;51.938;8.464;2022-11-15T05:26:15;13.80;69.40
22098;DHT22;11215;51.938;8.464;2022-11-15T05:28:41;13.90;69.70
22098;DHT22;11215;51.938;8.464;2022-11-15T05:31:08;13.90;70.30
22098;DHT22;11215;51.938;8.464;2022-11-15T05:33:34;13.90;69.70
22098;DHT22;11215;51.938;8.464;2022-11-15T05:38:52;13.90;70.10
22098;DHT22;11215;51.938;8.464;2022-11-15T05:41:22;13.90;69.40
22098;DHT22;11215;51.938;8.464;2022-11-15T05:43:50;13.90;69.60
22098;DHT22;11215;51.938;8.464;2022-11-15T05:46:17;13.90;69.60
22098;DHT22;11215;51.938;8.464;2022-11-15T05:48:45;13.90;69.30
22098;DHT22;11215;51.938;8.464;2022-11-15T05:51:14;13.90;69.60
22098;DHT22;11215;51.938;8.464;2022-11-15T05:53:41;13.90;69.70
22098;DHT22;11215;51.938;8.464;2022-11-15T05:56:09;13.90;69.40
22098;DHT22;11215;51.938;8.464;2022-11-15T05:58:36;13.90;69.50
22098;DHT22;11215;51.938;8.464;2022-11-15T06:01:02;13.90;69.60
22098;DHT22;11215;51.938;8.464;2022-11-15T06:03:28;13.90;69.40
22098;DHT22;11215;51.938;8.464;2022-11-15T06:05:54;13.90;69.40
22098;DHT22;11215;51.938;8.464;2022-11-15T06:08:19;13.90;69.70
22098;DHT22;11215;51.938;8.464;2022-11-15T06:10:45;13.80;70.90
22098;DHT22;11215;51.938;8.464;2022-11-15T06:13:11;13.80;70.90
22098;DHT22;11215;51.938;8.464;2022-11-15T06:15:36;13.80;70.60
22098;DHT22;11215;51.938;8.464;2022-11-15T06:18:02;13.90;70.50
22098;DHT22;11215;51.938;8.464;2022-11-15T06:20:29;13.90;70.20
22098;DHT22;11215;51.938;8.464;2022-11-15T06:22:59;14.00;70.30
22098;DHT22;11215;51.938;8.464;2022-11-15T06:25:26;14.00;70.30
22098;DHT22;11215;51.938;8.464;2022-11-15T06:27:53;14.00;70.00
22098;DHT22;11215;51.938;8.464;2022-11-15T06:30:19;14.00;70.00
22098;DHT22;11215;51.938;8.464;2022-11-15T06:32:45;13.90;70.90
22098;DHT22;11215;51.938;8.464;2022-11-15T06:35:11;13.90;70.90
22098;DHT22;11215;51.938;8.464;2022-11-15T06:37:36;14.00;70.80
22098;DHT22;11215;51.938;8.464;2022-11-15T06:40:02;14.00;70.60
22098;DHT22;11215;51.938;8.464;2022-11-15T06:42:28;14.00;70.30
22098;DHT22;11215;51.938;8.464;2022-11-15T06:44:53;14.10;70.30
22098;DHT22;11215;51.938;8.464;2022-11-15T06:47:19;14.10;70.20
22098;DHT22;11215;51.938;8.464;2022-11-15T06:49:45;14.10;70.00
22098;DHT22;11215;51.938;8.464;2022-11-15T06:52:10;14.10;70.00
22098;DHT22;11215;51.938;8.464;2022-11-15T06:54:36;14.20;70.70
22098;DHT22;11215;51.938;8.464;2022-11-15T06:57:03;14.20;70.10
22098;DHT22;11215;51.938;8.464;2022-11-15T06:59:29;14.20;70.10
22098;DHT22;11215;51.938;8.464;2022-11-15T07:01:54;14.30;70.10
22098;DHT22;11215;51.938;8.464;2022-11-15T07:04:20;14.20;70.10
22098;DHT22;11215;51.938;8.464;2022-11-15T07:06:48;14.20;70.00
22098;DHT22;11215;51.938;8.464;2022-11-15T07:09:14;14.20;70.20
22098;DHT22;11215;51.938;8.464;2022-11-15T07:11:40;14.30;70.10
22098;DHT22;11215;51.938;8.464;2022-11-15T07:14:05;14.30;70.10
22098;DHT22;11215;51.938;8.464;2022-11-15T07:16:31;14.30;70.10
22098;DHT22;11215;51.938;8.464;2022-11-15T07:18:57;14.40;70.00
22098;DHT22;11215;51.938;8.464;2022-11-15T07:21:22;14.30;69.90
22098;DHT22;11215;51.938;8.464;2022-11-15T07:23:48;14.40;70.00
22098;DHT22;11215;51.938;8.464;2022-11-15T07:26:14;14.40;70.00
22098;DHT22;11215;51.938;8.464;2022-11-15T07:28:40;14.40;70.00
22098;DHT22;11215;51.938;8.464;2022-11-15T07:31:07;14.40;69.80
22098;DHT22;11215;51.938;8.464;2022-11-15T07:33:34;14.40;70.00
22098;DHT22;11215;51.938;8.464;2022-11-15T07:36:05;14.50;69.70
22098;DHT22;11215;51.938;8.464;2022-11-15T07:38:35;14.50;70.00
22098;DHT22;11215;51.938;8.464;2022-11-15T07:41:03;14.50;69.70
22098;DHT22;11215;51.938;8.464;2022-11-15T07:43:29;14.50;69.90
22098;DHT22;11215;51.938;8.464;2022-11-15T07:45:56;14.50;69.50
22098;DHT22;11215;51.938;8.464;2022-11-15T07:48:22;14.50;69.70
22098;DHT22;11215;51.938;8.464;2022-11-15T07:50:47;14.50;69.80
22098;DHT22;11215;51.938;8.464;2022-11-15T07:53:13;14.60;69.70
22098;DHT22;11215;51.938;8.464;2022-11-15T07:55:40;14.60;69.80
22098;DHT22;11215;51.938;8.464;2022-11-15T07:58:09;14.60;69.90
22098;DHT22;11215;51.938;8.464;2022-11-15T08:00:41;14.60;69.90
22098;DHT22;11215;51.938;8.464;2022-11-15T08:03:15;14.60;69.70
22098;DHT22;11215;51.938;8.464;2022-11-15T08:05:41;14.70;69.80
22098;DHT22;11215;51.938;8.464;2022-11-15T08:08:09;14.70;69.80
22098;DHT22;11215;51.938;8.464;2022-11-15T08:10:35;14.70;69.90
22098;DHT22;11215;51.938;8.464;2022-11-15T08:13:06;14.70;69.80
22098;DHT22;11215;51.938;8.464;2022-11-15T08:15:32;14.70;69.90
22098;DHT22;11215;51.938;8.464;2022-11-15T08:18:01;14.80;70.00
22098;DHT22;11215;51.938;8.464;2022-11-15T08:20:28;14.80;69.80
22098;DHT22;11215;51.938;8.464;2022-11-15T08:23:01;14.90;70.00
22098;DHT22;11215;51.938;8.464;2022-11-15T08:25:47;14.90;70.00
22098;DHT22;11215;51.938;8.464;2022-11-15T08:28:15;15.00;69.80
22098;DHT22;11215;51.938;8.464;2022-11-15T08:30:42;15.00;69.80
22098;DHT22;11215;51.938;8.464;2022-11-15T08:33:11;15.10;69.90
22098;DHT22;11215;51.938;8.464;2022-11-15T08:35:38;15.20;69.80
22098;DHT22;11215;51.938;8.464;2022-11-15T08:38:03;15.20;69.60
22098;DHT22;11215;51.938;8.464;2022-11-15T08:40:29;15.30;69.50
22098;DHT22;11215;51.938;8.464;2022-11-15T08:42:55;15.30;69.40
22098;DHT22;11215;51.938;8.464;2022-11-15T08:45:20;15.40;69.30
22098;DHT22;11215;51.938;8.464;2022-11-15T08:47:46;15.40;69.10
22098;DHT22;11215;51.938;8.464;2022-11-15T08:50:12;15.50;69.10
22098;DHT22;11215;51.938;8.464;2022-11-15T08:52:37;15.50;69.10
22098;DHT22;11215;51.938;8.464;2022-11-15T08:55:03;15.60;68.90
22098;DHT22;11215;51.938;8.464;2022-11-15T08:57:30;15.60;69.10
22098;DHT22;11215;51.938;8.464;2022-11-15T08:59:56;15.70;69.10
22098;DHT22;11215;51.938;8.464;2022-11-15T09:02:22;15.70;68.90
22098;DHT22;11215;51.938;8.464;2022-11-15T09:04:47;15.80;68.70
22098;DHT22;11215;51.938;8.464;2022-11-15T09:07:13;15.80;68.60
22098;DHT22;11215;51.938;8.464;2022-11-15T09:09:39;15.90;68.40
22098;DHT22;11215;51.938;8.464;2022-11-15T09:12:06;16.00;68.40
22098;DHT22;11215;51.938;8.464;2022-11-15T09:14:31;16.00;68.20
22098;DHT22;11215;51.938;8.464;2022-11-15T09:16:58;16.00;68.00
22098;DHT22;11215;51.938;8.464;2022-11-15T09:19:24;16.00;67.70
22098;DHT22;11215;51.938;8.464;2022-11-15T09:21:50;16.10;67.50
22098;DHT22;11215;51.938;8.464;2022-11-15T09:24:15;16.20;67.40
22098;DHT22;11215;51.938;8.464;2022-11-15T09:26:42;16.20;67.30
22098;DHT22;11215;51.938;8.464;2022-11-15T09:29:08;16.20;67.10
22098;DHT22;11215;51.938;8.464;2022-11-15T09:31:33;16.30;67.00
22098;DHT22;11215;51.938;8.464;2022-11-15T09:34:01;16.30;66.70
22098;DHT22;11215;51.938;8.464;2022-11-15T09:36:27;16.30;66.70
22098;DHT22;11215;51.938;8.464;2022-11-15T09:39:01;16.30;66.20
22098;DHT22;11215;51.938;8.464;2022-11-15T09:41:57;16.40;66.10
22098;DHT22;11215;51.938;8.464;2022-11-15T09:44:47;16.40;65.80
22098;DHT22;11215;51.938;8.464;2022-11-15T09:49:58;16.50;66.30
22098;DHT22;11215;51.938;8.464;2022-11-15T09:52:24;16.50;65.90
22098;DHT22;11215;51.938;8.464;2022-11-15T09:54:51;16.50;65.70
22098;DHT22;11215;51.938;8.464;2022-11-15T09:57:31;16.60;65.70
22098;DHT22;11215;51.938;8.464;2022-11-15T10:00:12;16.60;65.50
22098;DHT22;11215;51.938;8.464;2022-11-15T10:03:08;16.70;65.50
22098;DHT22;11215;51.938;8.464;2022-11-15T10:05:47;16.70;64.20
22098;DHT22;11215;51.938;8.464;2022-11-15T10:10:45;16.70;65.20
22098;DHT22;11215;51.938;8.464;2022-11-15T10:13:33;16.80;63.90
22098;DHT22;11215;51.938;8.464;2022-11-15T10:24:11;16.90;63.40
22098;DHT22;11215;51.938;8.464;2022-11-15T10:26:37;16.90;62.30
22098;DHT22;11215;51.938;8.464;2022-11-15T10:29:02;16.90;62.70
22098;DHT22;11215;51.938;8.464;2022-11-15T10:31:29;16.90;62.70
22098;DHT22;11215;51.938;8.464;2022-11-15T10:34:17;17.00;62.60
22098;DHT22;11215;51.938;8.464;2022-11-15T10:36:57;17.00;61.50
22098;DHT22;11215;51.938;8.464;2022-11-15T10:39:23;17.00;62.10
22098;DHT22;11215;51.938;8.464;2022-11-15T10:41:49;17.00;61.80
22098;DHT22;11215;51.938;8.464;2022-11-15T10:44:23;17.10;62.00
22098;DHT22;11215;51.938;8.464;2022-11-15T10:49:32;17.10;61.10
22098;DHT22;11215;51.938;8.464;2022-11-15T10:52:17;17.10;60.90
22098;DHT22;11215;51.938;8.464;2022-11-15T10:54:51;17.20;61.40
22098;DHT22;11215;51.938;8.464;2022-11-15T10:57:23;17.20;61.10
22098;DHT22;11215;51.938;8.464;2022-11-15T10:59:54;17.20;60.70
22098;DHT22;11215;51.938;8.464;2022-11-15T11:02:26;17.30;60.80
22098;DHT22;11215;51.938;8.464;2022-11-15T11:04:55;17.30;60.40
22098;DHT22;11215;51.938;8.464;2022-11-15T11:07:32;17.30;60.50
22098;DHT22;11215;51.938;8.464;2022-11-15T11:10:17;17.30;60.30
22098;DHT22;11215;51.938;8.464;2022-11-15T11:12:43;17.30;59.50
22098;DHT22;11215;51.938;8.464;2022-11-15T11:15:12;17.40;60.40
22098;DHT22;11215;51.938;8.464;2022-11-15T11:18:19;17.40;60.30
22098;DHT22;11215;51.938;8.464;2022-11-15T11:20:51;17.40;59.50
22098;DHT22;11215;51.938;8.464;2022-11-15T11:27:34;17.40;59.50
22098;DHT22;11215;51.938;8.464;2022-11-15T11:34:58;17.50;59.90
22098;DHT22;11215;51.938;8.464;2022-11-15T11:37:50;17.40;59.10
22098;DHT22;11215;51.938;8.464;2022-11-15T11:40:42;17.50;59.10
22098;DHT22;11215;51.938;8.464;2022-11-15T11:49:09;17.50;58.90
22098;DHT22;11215;51.938;8.464;2022-11-15T11:51:41;17.60;59.60
22098;DHT22;11215;51.938;8.464;2022-11-15T11:56:41;17.60;59.00
22098;DHT22;11215;51.938;8.464;2022-11-15T12:02:09;17.60;58.80
22098;DHT22;11215;51.938;8.464;2022-11-15T12:04:40;17.70;58.90
22098;DHT22;11215;51.938;8.464;2022-11-15T12:07:24;17.70;58.90
22098;DHT22;11215;51.938;8.464;2022-11-15T12:10:17;17.70;58.10
22098;DHT22;11215;51.938;8.464;2022-11-15T12:13:01;17.70;58.30
22098;DHT22;11215;51.938;8.464;2022-11-15T12:15:32;17.80;58.10
22098;DHT22;11215;51.938;8.464;2022-11-15T12:18:01;17.80;58.60
22098;DHT22;11215;51.938;8.464;2022-11-15T12:20:30;17.80;58.70
22098;DHT22;11215;51.938;8.464;2022-11-15T12:23:11;17.80;58.30
22098;DHT22;11215;51.938;8.464;2022-11-15T12:25:50;17.90;57.90
22098;DHT22;11215;51.938;8.464;2022-11-15T12:31:14;17.90;57.50
22098;DHT22;11215;51.938;8.464;2022-11-15T12:33:47;17.90;57.70
22098;DHT22;11215;51.938;8.464;2022-11-15T12:39:05;17.90;57.10
22098;DHT22;11215;51.938;8.464;2022-11-15T12:41:33;17.90;57.20
22098;DHT22;11215;51.938;8.464;2022-11-15T12:43:59;17.90;57.80
22098;DHT22;11215;51.938;8.464;2022-11-15T13:02:40;17.90;56.50
22098;DHT22;11215;51.938;8.464;2022-11-15T13:17:51;17.90;55.90
22098;DHT22;11215;51.938;8.464;2022-11-15T13:20:20;17.90;56.10
22098;DHT22;11215;51.938;8.464;2022-11-15T13:22:48;17.90;55.70
22098;DHT22;11215;51.938;8.464;2022-11-15T13:28:09;17.90;54.40
22098;DHT22;11215;51.938;8.464;2022-11-15T13:30:37;17.90;55.60
22098;DHT22;11215;51.938;8.464;2022-11-15T13:33:14;17.90;55.50
22098;DHT22;11215;51.938;8.464;2022-11-15T13:35:41;17.90;55.10
22098;DHT22;11215;51.938;8.464;2022-11-15T13:38:19;17.90;55.50
22098;DHT22;11215;51.938;8.464;2022-11-15T13:40:50;17.90;54.90
22098;DHT22;11215;51.938;8.464;2022-11-15T13:43:35;17.90;55.50
22098;DHT22;11215;51.938;8.464;2022-11-15T13:48:46;18.00;54.60
22098;DHT22;11215;51.938;8.464;2022-11-15T13:51:17;17.90;55.20
22098;DHT22;11215;51.938;8.464;2022-11-15T13:53:54;17.90;54.70
22098;DHT22;11215;51.938;8.464;2022-11-15T13:56:20;17.90;54.30
22098;DHT22;11215;51.938;8.464;2022-11-15T13:58:46;17.90;54.70
22098;DHT22;11215;51.938;8.464;2022-11-15T14:01:18;17.90;54.70
22098;DHT22;11215;51.938;8.464;2022-11-15T14:03:58;17.90;54.40
22098;DHT22;11215;51.938;8.464;2022-11-15T14:06:26;17.90;54.30
22098;DHT22;11215;51.938;8.464;2022-11-15T14:11:37;17.90;54.30
22098;DHT22;11215;51.938;8.464;2022-11-15T14:14:12;17.90;55.10
22098;DHT22;11215;51.938;8.464;2022-11-15T14:16:46;17.90;54.40
22098;DHT22;11215;51.938;8.464;2022-11-15T14:19:33;17.80;54.30
22098;DHT22;11215;51.938;8.464;2022-11-15T14:22:24;17.90;54.10
22098;DHT22;11215;51.938;8.464;2022-11-15T14:27:31;17.80;54.20
22098;DHT22;11215;51.938;8.464;2022-11-15T14:29:57;17.80;54.90
22098;DHT22;11215;51.938;8.464;2022-11-15T14:32:28;17.80;54.80
22098;DHT22;11215;51.938;8.464;2022-11-15T14:35:00;17.80;54.50
22098;DHT22;11215;51.938;8.464;2022-11-15T14:37:33;17.80;54.50
22098;DHT22;11215;51.938;8.464;2022-11-15T14:40:05;17.80;54.30
22098;DHT22;11215;51.938;8.464;2022-11-15T14:42:33;17.80;54.30
22098;DHT22;11215;51.938;8.464;2022-11-15T14:44:59;17.80;54.40
22098;DHT22;11215;51.938;8.464;2022-11-15T14:47:24;17.80;54.50
22098;DHT22;11215;51.938;8.464;2022-11-15T14:49:50;17.70;54.40
22098;DHT22;11215;51.938;8.464;2022-11-15T14:52:27;17.70;54.20
22098;DHT22;11215;51.938;8.464;2022-11-15T14:54:57;17.70;53.70
22098;DHT22;11215;51.938;8.464;2022-11-15T14:57:24;17.70;54.30
22098;DHT22;11215;51.938;8.464;2022-11-15T14:59:50;17.60;54.40
22098;DHT22;11215;51.938;8.464;2022-11-15T15:02:24;17.60;54.70
22098;DHT22;11215;51.938;8.464;2022-11-15T15:04:50;17.60;54.60
22098;DHT22;11215;51.938;8.464;2022-11-15T15:07:17;17.50;55.00
22098;DHT22;11215;51.938;8.464;2022-11-15T15:09:43;17.50;55.00
22098;DHT22;11215;51.938;8.464;2022-11-15T15:12:22;17.50;55.20
22098;DHT22;11215;51.938;8.464;2022-11-15T15:14:49;17.40;54.90
22098;DHT22;11215;51.938;8.464;2022-11-15T15:17:16;17.40;55.30
22098;DHT22;11215;51.938;8.464;2022-11-15T15:19:42;17.30;55.40
22098;DHT22;11215;51.938;8.464;2022-11-15T15:22:19;17.30;55.40
22098;DHT22;11215;51.938;8.464;2022-11-15T15:24:47;17.30;55.40
22098;DHT22;11215;51.938;8.464;2022-11-15T15:27:13;17.20;55.60
22098;DHT22;11215;51.938;8.464;2022-11-15T15:29:39;17.20;55.70
22098;DHT22;11215;51.938;8.464;2022-11-15T15:32:05;17.20;55.70
22098;DHT22;11215;51.938;8.464;2022-11-15T15:34:31;17.10;55.80
22098;DHT22;11215;51.938;8.464;2022-11-15T15:37:21;17.10;55.90
22098;DHT22;11215;51.938;8.464;2022-11-15T15:39:51;17.10;55.90
22098;DHT22;11215;51.938;8.464;2022-11-15T15:42:18;17.00;56.00
22098;DHT22;11215;51.938;8.464;2022-11-15T15:44:43;17.00;56.10
22098;DHT22;11215;51.938;8.464;2022-11-15T15:47:14;17.00;56.20
22098;DHT22;11215;51.938;8.464;2022-11-15T15:49:41;16.90;56.20
22098;DHT22;11215;51.938;8.464;2022-11-15T15:52:07;16.90;56.20
22098;DHT22;11215;51.938;8.464;2022-11-15T15:54:32;16.90;56.20
22098;DHT22;11215;51.938;8.464;2022-11-15T15:56:58;16.90;56.30
22098;DHT22;11215;51.938;8.464;2022-11-15T15:59:24;16.90;56.30
22098;DHT22;11215;51.938;8.464;2022-11-15T16:01:49;16.80;56.30
22098;DHT22;11215;51.938;8.464;2022-11-15T16:04:15;16.80;56.40
22098;DHT22;11215;51.938;8.464;2022-11-15T16:06:41;16.80;56.40
22098;DHT22;11215;51.938;8.464;2022-11-15T16:09:13;16.70;56.40
22098;DHT22;11215;51.938;8.464;2022-11-15T16:11:40;16.70;56.60
22098;DHT22;11215;51.938;8.464;2022-11-15T16:14:07;16.70;56.70
22098;DHT22;11215;51.938;8.464;2022-11-15T16:16:37;16.60;56.60
22098;DHT22;11215;51.938;8.464;2022-11-15T16:19:03;16.60;56.70
22098;DHT22;11215;51.938;8.464;2022-11-15T16:21:29;16.60;56.80
22098;DHT22;11215;51.938;8.464;2022-11-15T16:23:55;16.60;56.80
22098;DHT22;11215;51.938;8.464;2022-11-15T16:26:24;16.50;56.90
22098;DHT22;11215;51.938;8.464;2022-11-15T16:28:50;16.50;57.00
22098;DHT22;11215;51.938;8.464;2022-11-15T16:31:16;16.60;57.00
22098;DHT22;11215;51.938;8.464;2022-11-15T16:33:45;16.50;57.10
22098;DHT22;11215;51.938;8.464;2022-11-15T16:38:43;16.40;57.00
22098;DHT22;11215;51.938;8.464;2022-11-15T16:41:09;16.50;57.30
22098;DHT22;11215;51.938;8.464;2022-11-15T16:43:34;16.40;57.20
22098;DHT22;11215;51.938;8.464;2022-11-15T16:46:08;16.30;57.20
22098;DHT22;11215;51.938;8.464;2022-11-15T16:48:34;16.30;57.50
22098;DHT22;11215;51.938;8.464;2022-11-15T16:51:00;16.30;57.40
22098;DHT22;11215;51.938;8.464;2022-11-15T16:53:26;16.30;57.50
22098;DHT22;11215;51.938;8.464;2022-11-15T16:55:52;16.30;57.60
22098;DHT22;11215;51.938;8.464;2022-11-15T16:58:18;16.20;57.60
22098;DHT22;11215;51.938;8.464;2022-11-15T17:00:43;16.20;57.60
22098;DHT22;11215;51.938;8.464;2022-11-15T17:03:09;16.20;57.80
22098;DHT22;11215;51.938;8.464;2022-11-15T17:05:35;16.20;57.90
22098;DHT22;11215;51.938;8.464;2022-11-15T17:08:01;16.10;58.00
22098;DHT22;11215;51.938;8.464;2022-11-15T17:10:27;16.10;58.00
22098;DHT22;11215;51.938;8.464;2022-11-15T17:16:16;16.10;58.50
22098;DHT22;11215;51.938;8.464;2022-11-15T17:18:43;16.10;58.40
22098;DHT22;11215;51.938;8.464;2022-11-15T17:21:16;16.00;58.40
22098;DHT22;11215;51.938;8.464;2022-11-15T17:23:43;16.00;58.60
22098;DHT22;11215;51.938;8.464;2022-11-15T17:26:10;16.00;58.60
22098;DHT22;11215;51.938;8.464;2022-11-15T17:28:37;16.00;58.70
22098;DHT22;11215;51.938;8.464;2022-11-15T17:31:09;16.00;58.80
22098;DHT22;11215;51.938;8.464;2022-11-15T17:33:36;16.00;58.90
22098;DHT22;11215;51.938;8.464;2022-11-15T17:36:05;16.10;58.90
22098;DHT22;11215;51.938;8.464;2022-11-15T17:38:31;16.10;59.00
22098;DHT22;11215;51.938;8.464;2022-11-15T17:41:05;16.00;59.00
22098;DHT22;11215;51.938;8.464;2022-11-15T17:43:32;16.10;59.30
22098;DHT22;11215;51.938;8.464;2022-11-15T17:45:59;16.00;59.20
22098;DHT22;11215;51.938;8.464;2022-11-15T17:48:25;16.10;59.30
22098;DHT22;11215;51.938;8.464;2022-11-15T17:50:58;16.10;59.50
22098;DHT22;11215;51.938;8.464;2022-11-15T17:53:25;16.10;59.70